createdAt,value
2022-09-16T00:00:35.781Z,100044.38
2022-09-16T00:03:04.238Z,100042.50
2022-09-16T00:05:31.820Z,100049.53
2022-09-16T00:07:59.456Z,100038.38
2022-09-16T00:10:28.689Z,100035.28
2022-09-16T00:12:56.315Z,100043.13
2022-09-16T00:15:23.984Z,100046.03
2022-09-16T00:17:51.685Z,100037.56
2022-09-16T00:20:19.417Z,100035.06
2022-09-16T00:22:46.983Z,100043.97
2022-09-16T00:25:14.597Z,100043.75
2022-09-16T00:27:43.531Z,100047.47
2022-09-16T00:30:11.998Z,100044.16
2022-09-16T00:32:39.597Z,100047.69
2022-09-16T00:35:08.322Z,100050.78
2022-09-16T00:37:36.024Z,100059.84
2022-09-16T00:40:04.044Z,100059.84
2022-09-16T00:42:31.683Z,100056.75
2022-09-16T00:45:03.341Z,100053.22
2022-09-16T00:47:35.567Z,100052.00
2022-09-16T00:50:09.229Z,100046.03
2022-09-16T00:52:37.378Z,100042.31
2022-09-16T00:55:09.452Z,100044.38
2022-09-16T00:57:39.242Z,100040.03
2022-09-16T01:00:10.787Z,100042.09
2022-09-16T01:02:38.832Z,100037.13
2022-09-16T01:05:09.151Z,100037.16
2022-09-16T01:07:43.097Z,100041.28
2022-09-16T01:10:11.358Z,100029.72
2022-09-16T01:12:40.050Z,100042.28
2022-09-16T01:15:09.010Z,100042.72
2022-09-16T01:17:55.312Z,100042.09
2022-09-16T01:21:00.885Z,100043.16
2022-09-16T01:23:58.129Z,100039.66
2022-09-16T01:26:48.981Z,100042.94
2022-09-16T01:29:33.937Z,100055.13
2022-09-16T01:32:07.689Z,100047.28
2022-09-16T01:34:47.269Z,100053.88
2022-09-16T01:37:25.662Z,100052.84
2022-09-16T01:40:03.552Z,100053.50
2022-09-16T01:42:39.568Z,100056.78
2022-09-16T01:45:16.438Z,100053.28
2022-09-16T01:47:55.625Z,100046.47
2022-09-16T01:50:27.621Z,100030.59
2022-09-16T01:53:02.147Z,100026.25
2022-09-16T01:55:33.821Z,100021.91
2022-09-16T01:58:06.102Z,100004.78
2022-09-16T02:00:34.576Z,100007.88
2022-09-16T02:03:08.677Z,100006.03
2022-09-16T02:05:41.848Z,100019.41
2022-09-16T02:08:13.422Z,100038.44
2022-09-16T02:10:44.519Z,100046.66
2022-09-16T02:13:18.969Z,100044.59
2022-09-16T02:15:50.996Z,100048.72
2022-09-16T02:18:25.083Z,100047.06
2022-09-16T02:20:55.350Z,100036.53
2022-09-16T02:23:26.560Z,100034.69
2022-09-16T02:25:56.486Z,100031.41
2022-09-16T02:28:27.908Z,100032.44
2022-09-16T02:30:59.395Z,100039.47
2022-09-16T02:33:32.798Z,100038.41
2022-09-16T02:36:03.181Z,100046.47
2022-09-16T02:38:35.670Z,100059.91
2022-09-16T02:41:03.632Z,100054.53
2022-09-16T02:43:31.980Z,100060.28
2022-09-16T02:46:10.247Z,100061.94
2022-09-16T02:48:50.474Z,100066.28
2022-09-16T02:51:30.606Z,100060.53
2022-09-16T02:54:02.997Z,100069.16
2022-09-16T02:56:33.911Z,100067.13
2022-09-16T02:59:02.165Z,100061.94
2022-09-16T03:01:33.811Z,100064.44
2022-09-16T03:04:04.114Z,100059.47
2022-09-16T03:06:36.000Z,100052.25
2022-09-16T03:09:07.305Z,100056.97
2022-09-16T03:11:50.250Z,100047.31
2022-09-16T03:14:53.000Z,100051.63
2022-09-16T03:17:34.567Z,100052.06
2022-09-16T03:20:10.966Z,100048.75
2022-09-16T03:22:48.562Z,100045.03
2022-09-16T03:25:30.999Z,100036.56
2022-09-16T03:28:06.825Z,100039.44
2022-09-16T03:30:42.530Z,100032.03
2022-09-16T03:33:16.766Z,100026.47
2022-09-16T03:35:50.294Z,100027.28
2022-09-16T03:38:19.570Z,100033.06
2022-09-16T03:40:49.224Z,100017.78
2022-09-16T03:43:18.075Z,100016.56
2022-09-16T03:45:45.938Z,100013.25
2022-09-16T03:48:14.592Z,100011.22
2022-09-16T03:50:42.203Z,100023.38
2022-09-16T03:53:11.297Z,100014.50
2022-09-16T03:55:38.939Z,100023.56
2022-09-16T03:58:06.570Z,100016.16
2022-09-16T04:00:34.593Z,100019.44
2022-09-16T04:03:03.055Z,100019.66
2022-09-16T04:05:30.966Z,100020.69
2022-09-16T04:07:58.809Z,100008.72
2022-09-16T04:10:27.817Z,100019.03
2022-09-16T04:12:58.594Z,100012.25
2022-09-16T04:15:26.223Z,100003.38
2022-09-16T04:17:55.097Z,100001.09
2022-09-16T04:20:22.722Z,99999.84
2022-09-16T04:22:50.271Z,100001.28
2022-09-16T04:25:17.871Z,99999.22
2022-09-16T04:27:46.876Z,99997.78
2022-09-16T04:30:14.805Z,99981.91
2022-09-16T04:32:42.365Z,99991.78
2022-09-16T04:35:10.617Z,99995.94
2022-09-16T04:37:38.215Z,99990.56
2022-09-16T04:40:06.713Z,99993.84
2022-09-16T04:42:34.393Z,99996.13
2022-09-16T04:45:03.447Z,99998.78
2022-09-16T04:47:31.141Z,99998.59
2022-09-16T04:49:59.430Z,99997.56
2022-09-16T04:52:27.075Z,100000.03
2022-09-16T04:54:55.891Z,99995.50
2022-09-16T04:57:25.854Z,100002.91
2022-09-16T04:59:53.416Z,99996.53
2022-09-16T05:02:22.360Z,100002.72
2022-09-16T05:04:49.990Z,100000.66
2022-09-16T05:07:17.647Z,100006.63
2022-09-16T05:09:45.207Z,99995.91
2022-09-16T05:12:12.835Z,99995.28
2022-09-16T05:14:40.688Z,100001.69
2022-09-16T05:17:08.364Z,100007.47
2022-09-16T05:19:37.313Z,100002.31
2022-09-16T05:22:07.035Z,100003.75
2022-09-16T05:24:36.385Z,100013.03
2022-09-16T05:27:04.471Z,100007.47
2022-09-16T05:29:32.099Z,100007.47
2022-09-16T05:31:59.691Z,100009.75
2022-09-16T05:34:28.603Z,100010.78
2022-09-16T05:36:57.632Z,100007.47
2022-09-16T05:39:26.207Z,100018.41
2022-09-16T05:41:56.178Z,100009.94
2022-09-16T05:44:23.853Z,100009.53
2022-09-16T05:46:51.630Z,100005.81
2022-09-16T05:49:20.860Z,100000.25
2022-09-16T05:51:49.749Z,100013.66
2022-09-16T05:54:19.756Z,100009.53
2022-09-16T05:56:48.330Z,100011.38
2022-09-16T05:59:17.451Z,100020.25
2022-09-16T06:01:45.930Z,100022.13
2022-09-16T06:04:15.884Z,100019.22
2022-09-16T06:06:44.875Z,100013.88
2022-09-16T06:09:15.799Z,100014.91
2022-09-16T06:11:46.807Z,100018.19
2022-09-16T06:14:15.744Z,100022.53
2022-09-16T06:16:43.887Z,100020.88
2022-09-16T06:19:13.632Z,100017.56
2022-09-16T06:21:41.811Z,100026.66
2022-09-16T06:24:10.056Z,100025.00
2022-09-16T06:26:39.770Z,100026.47
2022-09-16T06:29:09.794Z,100021.28
2022-09-16T06:31:38.656Z,100023.16
2022-09-16T06:34:07.709Z,100024.81
2022-09-16T06:36:38.518Z,100025.22
2022-09-16T06:39:08.267Z,100028.53
2022-09-16T06:41:35.961Z,100028.72
2022-09-16T06:44:03.605Z,100025.84
2022-09-16T06:46:32.521Z,100027.50
2022-09-16T06:49:05.047Z,100029.75
2022-09-16T06:51:34.351Z,100017.34
2022-09-16T06:54:03.521Z,100018.63
2022-09-16T06:56:31.300Z,100026.47
2022-09-16T06:58:58.899Z,100023.97
2022-09-16T07:01:28.585Z,100017.16
2022-09-16T07:03:59.306Z,100029.75
2022-09-16T07:06:52.249Z,100027.69
2022-09-16T07:09:18.434Z,100020.66
2022-09-16T07:11:46.093Z,100025.41
2022-09-16T07:14:13.659Z,100030.13
2022-09-16T07:16:41.327Z,100028.28
2022-09-16T07:19:10.482Z,100034.91
2022-09-16T07:21:38.129Z,100017.75
2022-09-16T07:24:06.180Z,100032.81
2022-09-16T07:26:35.711Z,100027.44
2022-09-16T07:29:05.318Z,100031.38
2022-09-16T07:31:36.350Z,100025.97
2022-09-16T07:34:05.529Z,100030.13
2022-09-16T07:36:36.365Z,100034.63
2022-09-16T07:39:04.846Z,100027.38
2022-09-16T07:41:35.631Z,100029.22
2022-09-16T07:44:05.070Z,100035.81
2022-09-16T07:46:34.726Z,100034.78
2022-09-16T07:49:03.944Z,100042.03
2022-09-16T07:51:31.908Z,100042.66
2022-09-16T07:54:03.744Z,100047.41
2022-09-16T07:56:34.352Z,100048.06
2022-09-16T07:59:03.099Z,100042.06
2022-09-16T08:01:31.702Z,100039.59
2022-09-16T08:04:01.326Z,100040.44
2022-09-16T08:06:30.152Z,100047.44
2022-09-16T08:09:10.159Z,100042.28
2022-09-16T08:11:50.377Z,100047.03
2022-09-16T08:14:17.972Z,100050.53
2022-09-16T08:16:46.591Z,100049.72
2022-09-16T08:19:14.378Z,100058.19
2022-09-16T08:21:42.008Z,100060.25
2022-09-16T08:24:10.902Z,100057.16
2022-09-16T08:26:38.587Z,100065.84
2022-09-16T08:29:09.397Z,100063.72
2022-09-16T08:31:38.654Z,100068.44
2022-09-16T08:34:07.285Z,100062.63
2022-09-16T08:36:35.151Z,100058.84
2022-09-16T08:39:03.142Z,100064.38
2022-09-16T08:41:51.398Z,100065.94
2022-09-16T08:44:34.497Z,100063.81
2022-09-16T08:47:06.279Z,100064.56
2022-09-16T08:49:38.262Z,100068.59
2022-09-16T08:52:14.262Z,100070.06
2022-09-16T08:54:45.126Z,100064.13
2022-09-16T08:57:16.481Z,100069.53
2022-09-16T08:59:49.891Z,100065.41
2022-09-16T09:02:29.822Z,100066.84
2022-09-16T09:04:57.963Z,100073.69
2022-09-16T09:07:43.101Z,100074.53
2022-09-16T09:10:16.851Z,100072.09
2022-09-16T09:12:49.742Z,100073.34
2022-09-16T09:15:33.428Z,100071.66
2022-09-16T09:18:16.139Z,100070.09
2022-09-16T09:20:50.581Z,100072.47
2022-09-16T09:23:34.209Z,100071.78
2022-09-16T09:26:08.596Z,100071.19
2022-09-16T09:29:01.287Z,100067.25
2022-09-16T09:31:39.372Z,100059.09
2022-09-16T09:34:17.244Z,100052.53
2022-09-16T09:37:00.338Z,100061.34
2022-09-16T09:39:43.125Z,100053.69
2022-09-16T09:42:16.219Z,100050.53
2022-09-16T09:44:52.129Z,100036.06
2022-09-16T09:47:26.185Z,100044.56
2022-09-16T09:49:57.686Z,100055.44
2022-09-16T09:52:32.391Z,100052.31
2022-09-16T09:55:16.291Z,100053.16
2022-09-16T09:57:56.938Z,100046.63
2022-09-16T10:00:24.552Z,100044.66
2022-09-16T10:02:53.871Z,100042.25
2022-09-16T10:05:25.962Z,100040.09
2022-09-16T10:07:56.665Z,100041.44
2022-09-16T10:10:25.854Z,100041.34
2022-09-16T10:12:54.562Z,100046.44
2022-09-16T10:15:24.447Z,100046.72
2022-09-16T10:17:54.622Z,100041.84
2022-09-16T10:20:28.199Z,100037.53
2022-09-16T10:23:01.031Z,100030.94
2022-09-16T10:25:30.683Z,100036.72
2022-09-16T10:28:01.269Z,100026.22
2022-09-16T10:30:32.842Z,100029.53
2022-09-16T10:33:04.830Z,100034.72
2022-09-16T10:35:34.491Z,100037.00
2022-09-16T10:38:06.398Z,100031.47
2022-09-16T10:40:34.942Z,100026.31
2022-09-16T10:43:05.430Z,100021.66
2022-09-16T10:45:36.655Z,100019.47
2022-09-16T10:48:13.296Z,100017.91
2022-09-16T10:50:40.930Z,100023.41
2022-09-16T10:53:23.947Z,100014.78
2022-09-16T10:55:59.013Z,100013.56
2022-09-16T10:58:26.875Z,100014.47
2022-09-16T11:01:20.138Z,100015.53
2022-09-16T11:04:21.856Z,100005.25
2022-09-16T11:07:02.591Z,100006.78
2022-09-16T11:09:36.656Z,99999.75
2022-09-16T11:12:34.814Z,100007.81
2022-09-16T11:15:13.926Z,100005.63
2022-09-16T11:17:58.620Z,100013.03
2022-09-16T11:20:57.548Z,99999.13
2022-09-16T11:23:41.248Z,100000.38
2022-09-16T11:26:18.452Z,100006.31
2022-09-16T11:29:09.441Z,100014.56
2022-09-16T11:31:44.395Z,100022.25
2022-09-16T11:34:24.742Z,100018.31
2022-09-16T11:37:07.308Z,100021.94
2022-09-16T11:40:01.312Z,100038.81
2022-09-16T11:42:34.307Z,100031.34
2022-09-16T11:45:12.777Z,100025.06
2022-09-16T11:47:54.519Z,100034.31
2022-09-16T11:50:42.200Z,100038.06
2022-09-16T11:53:34.581Z,100041.84
2022-09-16T11:56:08.780Z,100034.31
2022-09-16T11:58:40.078Z,100035.72
2022-09-16T12:03:54.425Z,100021.81
2022-09-16T12:06:26.622Z,100010.72
2022-09-16T12:09:01.661Z,100001.50
2022-09-16T12:11:33.901Z,100004.06
2022-09-16T12:14:09.379Z,100008.03
2022-09-16T12:16:42.924Z,100002.53
2022-09-16T12:19:17.862Z,99997.34
2022-09-16T12:21:57.500Z,99990.09
2022-09-16T12:24:33.479Z,99995.44
2022-09-16T12:27:07.058Z,100007.78
2022-09-16T12:29:41.795Z,99998.66
2022-09-16T12:32:14.081Z,99991.56
2022-09-16T12:34:45.606Z,99994.00
2022-09-16T12:37:25.579Z,99993.63
2022-09-16T12:39:54.596Z,99994.38
2022-09-16T12:42:51.520Z,99993.41
2022-09-16T12:46:06.540Z,99985.94
2022-09-16T12:48:58.979Z,99975.63
2022-09-16T12:51:54.518Z,99980.75
2022-09-16T12:54:51.227Z,99979.34
2022-09-16T12:57:42.584Z,99983.44
2022-09-16T13:00:16.610Z,99989.66
2022-09-16T13:02:48.763Z,99987.56
2022-09-16T13:05:26.242Z,99987.69
2022-09-16T13:07:59.452Z,99997.75
2022-09-16T13:10:53.959Z,100000.72
2022-09-16T13:13:30.979Z,100011.38
2022-09-16T13:16:00.969Z,100030.94
2022-09-16T13:18:41.148Z,100039.09
2022-09-16T13:21:21.155Z,100034.66
2022-09-16T13:23:54.439Z,100035.34
2022-09-16T13:26:22.276Z,100032.50
2022-09-16T13:28:51.267Z,100031.13
2022-09-16T13:31:30.950Z,100028.31
2022-09-16T13:34:15.102Z,100019.47
2022-09-16T13:36:42.819Z,100014.09
2022-09-16T13:39:13.617Z,100016.97
2022-09-16T13:41:44.325Z,100016.53
2022-09-16T13:44:31.511Z,100015.06
2022-09-16T13:47:16.952Z,100019.13
2022-09-16T13:49:49.061Z,100012.50
2022-09-16T13:52:21.071Z,100007.53
2022-09-16T13:55:09.547Z,100025.31
2022-09-16T13:57:55.465Z,100019.94
2022-09-16T14:00:32.325Z,100018.50
2022-09-16T14:03:26.683Z,100019.94
2022-09-16T14:06:14.521Z,100016.66
2022-09-16T14:08:51.704Z,100020.38
2022-09-16T14:11:29.768Z,100019.75
2022-09-16T14:14:05.919Z,100012.56
2022-09-16T14:16:40.221Z,100012.19
2022-09-16T14:19:14.015Z,100009.72
2022-09-16T14:21:41.637Z,100009.72
2022-09-16T14:24:17.216Z,100007.22
2022-09-16T14:26:54.767Z,100010.13
2022-09-16T14:29:23.789Z,100001.84
2022-09-16T14:31:55.482Z,100000.22
2022-09-16T14:34:28.516Z,100002.88
2022-09-16T14:36:56.314Z,99995.66
2022-09-16T14:39:26.414Z,99996.28
2022-09-16T14:41:58.338Z,99999.38
2022-09-16T14:44:31.908Z,99996.25
2022-09-16T14:47:09.146Z,99997.50
2022-09-16T14:49:40.972Z,99999.75
2022-09-16T14:52:20.611Z,100001.19
2022-09-16T14:54:48.335Z,99999.31
2022-09-16T14:57:20.556Z,100005.53
2022-09-16T14:59:48.464Z,100012.75
2022-09-16T15:02:22.805Z,100011.53
2022-09-16T15:04:53.772Z,100004.69
2022-09-16T15:07:25.026Z,100014.63
2022-09-16T15:09:58.491Z,100019.19
2022-09-16T15:12:29.209Z,100021.91
2022-09-16T15:14:57.669Z,100026.28
2022-09-16T15:17:29.158Z,100024.22
2022-09-16T15:19:58.872Z,100031.06
2022-09-16T15:22:27.895Z,100032.13
2022-09-16T15:24:58.491Z,100028.44
2022-09-16T15:27:28.199Z,100028.47
2022-09-16T15:29:59.555Z,100033.41
2022-09-16T15:32:31.765Z,100042.94
2022-09-16T15:35:25.949Z,100028.50
2022-09-16T15:37:54.852Z,100035.50
2022-09-16T15:40:32.587Z,100037.19
2022-09-16T15:43:06.877Z,100035.09
2022-09-16T15:45:34.739Z,100045.03
2022-09-16T15:48:07.393Z,100039.66
2022-09-16T15:50:41.990Z,100029.53
2022-09-16T15:53:13.958Z,100042.75
2022-09-16T15:55:44.195Z,100032.44
2022-09-16T15:58:17.635Z,100033.88
2022-09-16T16:01:04.344Z,100032.03
2022-09-16T16:03:47.253Z,100030.16
2022-09-16T16:06:15.096Z,100029.97
2022-09-16T16:08:48.355Z,100039.84
2022-09-16T16:11:18.096Z,100049.16
2022-09-16T16:13:46.681Z,100064.03
2022-09-16T16:16:16.241Z,100066.91
2022-09-16T16:18:47.366Z,100067.31
2022-09-16T16:21:17.164Z,100062.34
2022-09-16T16:23:45.349Z,100077.22
2022-09-16T16:26:13.006Z,100066.91
2022-09-16T16:28:40.586Z,100079.91
2022-09-16T16:31:13.521Z,100086.72
2022-09-16T16:33:47.506Z,100083.00
2022-09-16T16:36:16.779Z,100076.81
2022-09-16T16:38:46.184Z,100073.69
2022-09-16T16:41:20.658Z,100072.69
2022-09-16T16:43:48.454Z,100073.47
2022-09-16T16:46:17.436Z,100073.66
2022-09-16T16:48:47.105Z,100075.09
2022-09-16T16:51:14.824Z,100066.81
2022-09-16T16:53:42.527Z,100062.66
2022-09-16T16:56:15.077Z,100059.56
2022-09-16T16:58:42.992Z,100058.94
2022-09-16T17:01:12.785Z,100058.94
2022-09-16T17:03:40.975Z,100066.34
2022-09-16T17:06:10.357Z,100064.69
2022-09-16T17:08:38.359Z,100064.66
2022-09-16T17:11:07.950Z,100064.44
2022-09-16T17:13:35.615Z,100071.63
2022-09-16T17:16:04.091Z,100074.94
2022-09-16T17:18:31.832Z,100075.31
2022-09-16T17:21:02.878Z,100071.59
2022-09-16T17:23:32.182Z,100077.75
2022-09-16T17:25:59.777Z,100087.19
2022-09-16T17:28:27.444Z,100086.56
2022-09-16T17:30:55.324Z,100083.34
2022-09-16T17:33:23.379Z,100093.94
2022-09-16T17:36:01.195Z,100088.94
2022-09-16T17:38:29.062Z,100096.81
2022-09-16T17:41:03.854Z,100095.84
2022-09-16T17:43:32.869Z,100099.41
2022-09-16T17:46:01.371Z,100096.13
2022-09-16T17:48:29.378Z,100104.13
2022-09-16T17:50:57.962Z,100099.25
2022-09-16T17:53:26.675Z,100095.88
2022-09-16T17:56:02.088Z,100095.88
2022-09-16T17:58:31.400Z,100104.78
2022-09-16T18:01:08.494Z,100104.22
2022-09-16T18:03:36.822Z,100108.56
2022-09-16T18:06:07.225Z,100110.59
2022-09-16T18:08:34.839Z,100114.72
2022-09-16T18:11:02.622Z,100114.31
2022-09-16T18:13:31.957Z,100117.53
2022-09-16T18:16:03.894Z,100117.56
2022-09-16T18:18:32.727Z,100121.88
2022-09-16T18:21:00.545Z,100117.56
2022-09-16T18:23:30.568Z,100121.69
2022-09-16T18:25:58.591Z,100122.34
2022-09-16T18:28:26.236Z,100124.00
2022-09-16T18:31:06.150Z,100128.31
2022-09-16T18:33:36.628Z,100130.00
2022-09-16T18:36:07.326Z,100133.91
2022-09-16T18:38:35.967Z,100119.72
2022-09-16T18:41:08.483Z,100130.44
2022-09-16T18:43:36.517Z,100141.16
2022-09-16T18:46:10.931Z,100140.53
2022-09-16T18:48:39.139Z,100137.03
2022-09-16T18:51:08.129Z,100147.28
2022-09-16T18:53:35.766Z,100146.47
2022-09-16T18:56:03.736Z,100149.16
2022-09-16T18:58:31.833Z,100142.19
2022-09-16T19:01:09.475Z,100151.47
2022-09-16T19:03:38.471Z,100145.28
2022-09-16T19:06:06.428Z,100150.47
2022-09-16T19:08:35.636Z,100147.41
2022-09-16T19:11:04.213Z,100153.16
2022-09-16T19:13:33.702Z,100155.66
2022-09-16T19:16:01.407Z,100159.72
2022-09-16T19:18:29.440Z,100160.53
2022-09-16T19:20:58.720Z,100155.38
2022-09-16T19:23:26.369Z,100163.22
2022-09-16T19:25:54.491Z,100167.72
2022-09-16T19:28:22.050Z,100159.91
2022-09-16T19:30:49.902Z,100163.81
2022-09-16T19:33:17.919Z,100166.69
2022-09-16T19:35:45.519Z,100172.03
2022-09-16T19:38:14.549Z,100164.19
2022-09-16T19:40:42.221Z,100173.44
2022-09-16T19:43:09.813Z,100170.53
2022-09-16T19:45:37.485Z,100174.41
2022-09-16T19:48:05.973Z,100180.59
2022-09-16T19:50:33.767Z,100185.56
2022-09-16T19:53:01.422Z,100178.56
2022-09-16T19:55:30.379Z,100176.53
2022-09-16T19:57:58.039Z,100180.84
2022-09-16T20:00:36.740Z,100180.63
2022-09-16T20:03:13.656Z,100179.78
2022-09-16T20:05:41.272Z,100180.38
2022-09-16T20:08:08.912Z,100178.06
2022-09-16T20:10:37.978Z,100179.28
2022-09-16T20:13:05.620Z,100181.56
2022-09-16T20:15:33.680Z,100181.38
2022-09-16T20:18:01.259Z,100181.00
2022-09-16T20:20:29.983Z,100182.25
2022-09-16T20:22:57.579Z,100182.47
2022-09-16T20:25:25.280Z,100191.06
2022-09-16T20:27:54.400Z,100183.41
2022-09-16T20:30:22.023Z,100191.25
2022-09-16T20:32:49.994Z,100183.03
2022-09-16T20:35:17.645Z,100182.66
2022-09-16T20:37:45.313Z,100179.16
2022-09-16T20:40:12.985Z,100188.19
2022-09-16T20:42:40.710Z,100192.72
2022-09-16T20:45:11.051Z,100178.69
2022-09-16T20:47:38.638Z,100181.56
2022-09-16T20:50:09.227Z,100177.44
2022-09-16T20:52:36.819Z,100185.28
2022-09-16T20:55:06.324Z,100182.72
2022-09-16T20:57:34.012Z,100180.81
2022-09-16T21:00:01.684Z,100180.19
2022-09-16T21:02:30.650Z,100192.53
2022-09-16T21:05:03.599Z,100180.78
2022-09-16T21:07:31.269Z,100188.75
2022-09-16T21:09:59.080Z,100189.28
2022-09-16T21:12:26.720Z,100194.41
2022-09-16T21:14:54.291Z,100190.63
2022-09-16T21:17:22.621Z,100199.66
2022-09-16T21:19:51.652Z,100198.78
2022-09-16T21:22:20.210Z,100213.09
2022-09-16T21:24:47.973Z,100202.38
2022-09-16T21:27:15.598Z,100209.41
2022-09-16T21:29:43.264Z,100216.78
2022-09-16T21:32:10.922Z,100209.03
2022-09-16T21:34:38.530Z,100207.38
2022-09-16T21:37:07.460Z,100209.03
2022-09-16T21:39:35.104Z,100209.59
2022-09-16T21:42:02.700Z,100205.34
2022-09-16T21:44:30.385Z,100205.53
2022-09-16T21:46:57.931Z,100218.28
2022-09-16T21:49:26.081Z,100213.31
2022-09-16T21:51:55.136Z,100218.47
2022-09-16T21:54:25.189Z,100217.19
2022-09-16T21:56:53.111Z,100224.38
2022-09-16T21:59:21.189Z,100218.84
2022-09-16T22:01:50.189Z,100225.00
2022-09-16T22:04:20.506Z,100228.88
2022-09-16T22:06:49.669Z,100226.84
2022-09-16T22:09:17.539Z,100235.16
2022-09-16T22:11:46.998Z,100234.34
2022-09-16T22:14:14.634Z,100231.66
2022-09-16T22:16:42.439Z,100235.34
2022-09-16T22:19:12.167Z,100232.09
2022-09-16T22:21:42.217Z,100239.69
2022-09-16T22:24:10.372Z,100238.84
2022-09-16T22:26:38.493Z,100241.53
2022-09-16T22:29:09.298Z,100237.38
2022-09-16T22:31:38.407Z,100237.38
2022-09-16T22:34:06.527Z,100232.13
2022-09-16T22:36:36.441Z,100231.13
2022-09-16T22:39:06.116Z,100236.47
2022-09-16T22:41:34.679Z,100240.41
2022-09-16T22:44:02.946Z,100230.34
2022-09-16T22:46:34.488Z,100232.78
2022-09-16T22:49:02.674Z,100222.44
2022-09-16T22:51:30.412Z,100232.31
2022-09-16T22:53:58.039Z,100229.56
2022-09-16T22:56:29.279Z,100228.38
2022-09-16T22:58:57.957Z,100221.81
2022-09-16T23:01:27.668Z,100221.19
2022-09-16T23:03:58.438Z,100217.28
2022-09-16T23:06:27.971Z,100217.28
2022-09-16T23:08:55.881Z,100224.66
2022-09-16T23:11:25.452Z,100214.78
2022-09-16T23:13:54.100Z,100218.13
2022-09-16T23:16:23.690Z,100223.63
2022-09-16T23:18:51.833Z,100217.19
2022-09-16T23:21:22.103Z,100221.53
2022-09-16T23:23:52.077Z,100225.88
2022-09-16T23:26:21.780Z,100224.88
2022-09-16T23:28:52.522Z,100218.88
2022-09-16T23:31:22.820Z,100215.88
2022-09-16T23:33:50.620Z,100215.34
2022-09-16T23:36:20.410Z,100226.41
2022-09-16T23:38:48.548Z,100229.81
2022-09-16T23:41:19.725Z,100235.78
2022-09-16T23:43:48.410Z,100236.19
2022-09-16T23:46:20.335Z,100238.66
2022-09-16T23:48:51.511Z,100241.53
2022-09-16T23:51:27.234Z,100241.69
2022-09-16T23:53:56.721Z,100249.22
2022-09-16T23:56:24.308Z,100242.22
2022-09-16T23:58:52.810Z,100247.56
